Fukui Airport


Codes: RJNF/FKJ
Name: Fukui Airport
City:
Country: Japan
Elevation: 19 ft.
Wikipedia:

Photos at Fukui Airport


   Photos courtesy of SpottingLog. You can add your own sightings and photos by signing up for a free trial today.



No photos found.

Weather at Fukui Airport


Time (UTC)DescriptionTempratureWindCloud coverageVisibilityPressureHumidity
26-Jun-2024 00:00Overcast Clouds22°C2 mph, SW97%10000m1016hPa60%
26-Jun-2024 03:00Overcast Clouds23°C7 mph, NW97%10000m1016hPa58%
26-Jun-2024 06:00Overcast Clouds24°C4 mph, W98%10000m1015hPa59%
26-Jun-2024 09:00Overcast Clouds23°C2 mph, NW100%10000m1016hPa79%
26-Jun-2024 12:00Overcast Clouds21°C0 mph, NE100%10000m1016hPa86%
26-Jun-2024 15:00Overcast Clouds19°C4 mph, SE97%10000m1016hPa89%
26-Jun-2024 18:00Overcast Clouds19°C2 mph, SE99%10000m1015hPa87%
26-Jun-2024 21:00Overcast Clouds19°C2 mph, SE100%10000m1017hPa83%
27-Jun-2024 00:00Overcast Clouds23°C2 mph, SW100%10000m1017hPa67%
27-Jun-2024 03:00Overcast Clouds25°C4 mph, NW100%10000m1016hPa62%
27-Jun-2024 06:00Overcast Clouds25°C2 mph, NW100%10000m1015hPa65%
27-Jun-2024 09:00Overcast Clouds23°C2 mph, N100%10000m1015hPa77%
27-Jun-2024 12:00Overcast Clouds21°C2 mph, SE100%10000m1015hPa84%
27-Jun-2024 15:00Overcast Clouds21°C4 mph, SE100%10000m1014hPa84%
27-Jun-2024 18:00Overcast Clouds20°C2 mph, SE100%10000m1013hPa81%
27-Jun-2024 21:00Light Rain21°C2 mph, SE100%10000m1014hPa84%
28-Jun-2024 00:00Light Rain22°C2 mph, SE100%10000m1013hPa91%
28-Jun-2024 03:00Heavy Intensity Rain21°C4 mph, S100%3684m1013hPa99%
28-Jun-2024 06:00Moderate Rain21°C4 mph, SE100%10000m1012hPa96%
28-Jun-2024 09:00Light Rain21°C4 mph, SE100%10000m1010hPa95%
28-Jun-2024 12:00Light Rain20°C7 mph, SE100%10000m1009hPa97%
28-Jun-2024 15:00Light Rain23°C16 mph, S100%10000m1007hPa84%
28-Jun-2024 18:00Light Rain24°C13 mph, S100%10000m1005hPa75%
28-Jun-2024 21:00Light Rain23°C20 mph, SW67%10000m1006hPa86%
29-Jun-2024 00:00Light Rain21°C18 mph, SW80%10000m1008hPa90%
29-Jun-2024 03:00Light Rain22°C16 mph, SW96%10000m1011hPa88%
29-Jun-2024 06:00Light Rain25°C11 mph, W68%10000m1011hPa68%
29-Jun-2024 09:00Clear Sky24°C2 mph, W0%10000m1012hPa81%
29-Jun-2024 12:00Clear Sky20°C4 mph, SE0%10000m1013hPa89%
29-Jun-2024 15:00Clear Sky18°C4 mph, SE1%10000m1012hPa80%
29-Jun-2024 18:00Scattered Clouds19°C4 mph, SE40%10000m1011hPa63%
29-Jun-2024 21:00Broken Clouds20°C4 mph, SE68%10000m1011hPa67%
30-Jun-2024 00:00Broken Clouds28°C4 mph, SW84%10000m1011hPa62%
30-Jun-2024 03:00Overcast Clouds28°C7 mph, SW100%10000m1011hPa69%
30-Jun-2024 06:00Light Rain27°C7 mph, SW100%10000m1010hPa85%
30-Jun-2024 09:00Moderate Rain24°C4 mph, SW100%10000m1010hPa92%
30-Jun-2024 12:00Light Rain23°C4 mph, SE100%10000m1011hPa94%
30-Jun-2024 15:00Overcast Clouds22°C7 mph, SE100%10000m1009hPa93%
30-Jun-2024 18:00Overcast Clouds22°C7 mph, SE100%10000m1008hPa92%
30-Jun-2024 21:00Overcast Clouds23°C7 mph, SE100%10000m1008hPa89%